createdAt,value
2018-12-22T00:00:16.717Z,16.70
2018-12-22T00:02:47.664Z,20.03
2018-12-22T00:05:18.653Z,15.23
2018-12-22T00:07:50.639Z,19.57
2018-12-22T00:10:21.438Z,22.37
2018-12-22T00:12:52.206Z,24.07
2018-12-22T00:15:23.270Z,18.43
2018-12-22T00:17:54.176Z,18.67
2018-12-22T00:20:25.150Z,22.70
2018-12-22T00:22:56.266Z,15.17
2018-12-22T00:25:27.096Z,16.57
2018-12-22T00:27:57.674Z,15.97
2018-12-22T00:30:28.347Z,18.97
2018-12-22T00:32:59.303Z,19.73
2018-12-22T00:35:29.981Z,13.50
2018-12-22T00:38:00.937Z,13.47
2018-12-22T00:40:31.621Z,14.27
2018-12-22T00:43:02.412Z,17.40
2018-12-22T00:45:33.080Z,21.23
2018-12-22T00:48:03.938Z,11.93
2018-12-22T00:50:34.971Z,13.57
2018-12-22T00:53:05.627Z,17.50
2018-12-22T00:55:36.350Z,15.07
2018-12-22T00:58:07.207Z,15.93
2018-12-22T01:00:38.152Z,17.07
2018-12-22T01:03:09.158Z,18.63
2018-12-22T01:05:39.916Z,16.20
2018-12-22T01:08:10.763Z,19.37
2018-12-22T01:10:41.660Z,15.53
2018-12-22T01:13:12.465Z,19.87
2018-12-22T01:15:43.344Z,12.77
2018-12-22T01:18:14.066Z,14.10
2018-12-22T01:20:45.031Z,22.30
2018-12-22T01:23:15.935Z,15.77
2018-12-22T01:25:46.826Z,19.57
2018-12-22T01:28:17.695Z,17.63
2018-12-22T01:30:48.359Z,15.67
2018-12-22T01:33:19.285Z,20.73
2018-12-22T01:35:50.001Z,20.90
2018-12-22T01:38:21.056Z,17.73
2018-12-22T01:40:51.994Z,21.10
2018-12-22T01:43:22.837Z,22.10
2018-12-22T01:45:53.736Z,20.13
2018-12-22T01:48:24.424Z,23.73
2018-12-22T01:50:55.459Z,18.27
2018-12-22T01:53:26.208Z,19.40
2018-12-22T01:55:57.048Z,21.40
2018-12-22T01:58:27.890Z,24.57
2018-12-22T02:00:58.710Z,19.77
2018-12-22T02:03:29.707Z,20.83
2018-12-22T02:06:00.456Z,19.73
2018-12-22T02:08:31.178Z,19.60
2018-12-22T02:11:02.131Z,24.00
2018-12-22T02:13:32.915Z,36.97
2018-12-22T02:16:03.599Z,22.03
2018-12-22T02:18:34.391Z,21.83
2018-12-22T02:21:05.076Z,19.77
2018-12-22T02:23:36.045Z,38.87
2018-12-22T02:26:06.822Z,21.07
2018-12-22T02:28:38.904Z,23.67
2018-12-22T02:31:09.580Z,21.60
2018-12-22T02:33:40.518Z,27.47
2018-12-22T02:36:11.250Z,22.53
2018-12-22T02:38:42.504Z,20.20
2018-12-22T02:41:13.349Z,22.00
2018-12-22T02:43:44.132Z,23.50
2018-12-22T02:46:14.730Z,22.93
2018-12-22T02:48:45.443Z,21.10
2018-12-22T02:51:16.188Z,19.83
2018-12-22T02:53:47.114Z,21.13
2018-12-22T02:56:17.959Z,15.73
2018-12-22T02:58:48.862Z,28.27
2018-12-22T03:01:20.479Z,22.17
2018-12-22T03:03:51.465Z,19.57
2018-12-22T03:06:22.416Z,21.47
2018-12-22T03:08:53.312Z,20.47
2018-12-22T03:11:24.275Z,24.70
2018-12-22T03:13:54.856Z,22.23
2018-12-22T03:16:25.712Z,24.17
2018-12-22T03:18:56.621Z,21.83
2018-12-22T03:21:27.436Z,23.27
2018-12-22T03:23:58.228Z,37.90
2018-12-22T03:26:29.015Z,27.97
2018-12-22T03:28:59.973Z,44.43
2018-12-22T03:31:30.569Z,26.77
2018-12-22T03:34:01.318Z,28.90
2018-12-22T03:36:32.059Z,24.83
2018-12-22T03:39:03.117Z,33.27
2018-12-22T03:41:34.043Z,24.07
2018-12-22T03:44:05.014Z,25.03
2018-12-22T03:46:35.929Z,31.07
2018-12-22T03:49:06.814Z,26.73
2018-12-22T03:51:37.770Z,33.50
2018-12-22T03:54:08.652Z,23.20
2018-12-22T03:56:39.438Z,23.87
2018-12-22T03:59:10.230Z,27.57
2018-12-22T04:01:40.847Z,28.07
2018-12-22T04:04:11.680Z,23.33
2018-12-22T04:06:42.501Z,28.70
2018-12-22T04:09:13.423Z,31.33
2018-12-22T04:11:44.096Z,28.37
2018-12-22T04:14:14.842Z,26.80
2018-12-22T04:16:45.619Z,22.67
2018-12-22T04:19:16.563Z,26.00
2018-12-22T04:21:47.621Z,23.60
2018-12-22T04:24:18.441Z,24.97
2018-12-22T04:26:49.187Z,20.53
2018-12-22T04:29:19.908Z,25.53
2018-12-22T04:31:50.861Z,24.47
2018-12-22T04:34:21.721Z,29.40
2018-12-22T04:36:52.531Z,25.37
2018-12-22T04:39:23.663Z,23.87
2018-12-22T04:41:54.445Z,24.13
2018-12-22T04:44:26.134Z,26.37
2018-12-22T04:46:56.957Z,22.87
2018-12-22T04:49:29.319Z,23.77
2018-12-22T04:52:00.012Z,22.33
2018-12-22T04:54:30.945Z,20.57
2018-12-22T04:57:01.699Z,22.47
2018-12-22T04:59:32.406Z,24.50
2018-12-22T05:02:04.094Z,22.07
2018-12-22T05:04:34.906Z,17.67
2018-12-22T05:07:06.430Z,24.73
2018-12-22T05:09:37.314Z,19.63
2018-12-22T05:12:08.303Z,21.27
2018-12-22T05:14:38.863Z,16.03
2018-12-22T05:17:09.507Z,20.27
2018-12-22T05:19:40.260Z,21.43
2018-12-22T05:22:11.033Z,17.23
2018-12-22T05:24:41.988Z,23.80
2018-12-22T05:27:13.200Z,21.60
2018-12-22T05:29:51.734Z,27.77
2018-12-22T05:32:17.594Z,25.50
2018-12-22T05:34:48.489Z,33.20
2018-12-22T05:37:19.556Z,22.73
2018-12-22T05:39:50.368Z,23.63
2018-12-22T05:42:20.982Z,22.57
2018-12-22T05:44:52.025Z,27.27
2018-12-22T05:47:22.946Z,24.40
2018-12-22T05:49:53.932Z,18.77
2018-12-22T05:52:24.584Z,19.53
2018-12-22T05:54:55.550Z,16.87
2018-12-22T05:57:26.553Z,21.83
2018-12-22T06:00:00.833Z,17.70
2018-12-22T06:02:30.546Z,21.57
2018-12-22T06:05:02.693Z,16.63
2018-12-22T06:07:33.372Z,16.83
2018-12-22T06:10:04.115Z,21.87
2018-12-22T06:12:34.974Z,21.50
2018-12-22T06:15:06.373Z,22.80
2018-12-22T06:17:37.305Z,21.47
2018-12-22T06:20:10.962Z,16.63
2018-12-22T06:22:41.723Z,23.40
2018-12-22T06:25:12.443Z,20.27
2018-12-22T06:27:43.275Z,25.87
2018-12-22T06:30:14.457Z,19.40
2018-12-22T06:32:45.370Z,19.20
2018-12-22T06:35:16.202Z,23.90
2018-12-22T06:37:46.969Z,14.13
2018-12-22T06:40:17.833Z,17.10
2018-12-22T06:42:48.784Z,15.40
2018-12-22T06:45:19.645Z,19.73
2018-12-22T06:47:50.592Z,20.10
2018-12-22T06:50:21.526Z,27.50
2018-12-22T06:52:52.389Z,28.20
2018-12-22T06:55:23.100Z,18.83
2018-12-22T06:57:53.996Z,18.47
2018-12-22T07:00:24.856Z,19.83
2018-12-22T07:02:55.666Z,19.37
2018-12-22T07:05:26.544Z,23.27
2018-12-22T07:07:57.401Z,24.40
2018-12-22T07:10:28.398Z,18.13
2018-12-22T07:12:59.532Z,18.67
2018-12-22T07:15:30.364Z,17.33
2018-12-22T07:18:01.146Z,17.90
2018-12-22T07:20:31.886Z,18.83
2018-12-22T07:23:03.021Z,20.63
2018-12-22T07:25:33.871Z,17.93
2018-12-22T07:28:04.921Z,17.63
2018-12-22T07:30:35.864Z,32.57
2018-12-22T07:33:07.460Z,18.43
2018-12-22T07:35:38.498Z,18.10
2018-12-22T07:38:09.831Z,18.37
2018-12-22T07:40:41.046Z,17.10
2018-12-22T07:43:12.889Z,18.97
2018-12-22T07:45:44.555Z,20.03
2018-12-22T07:48:15.353Z,17.83
2018-12-22T07:50:47.268Z,15.70
2018-12-22T07:53:18.255Z,15.60
2018-12-22T07:55:49.055Z,14.37
2018-12-22T07:58:20.351Z,14.77
2018-12-22T08:00:51.253Z,14.97
2018-12-22T08:03:22.342Z,16.57
2018-12-22T08:05:54.035Z,10.93
2018-12-22T08:08:25.681Z,12.67
2018-12-22T08:10:56.768Z,15.20
2018-12-22T08:13:28.139Z,13.67
2018-12-22T08:15:59.185Z,13.03
2018-12-22T08:18:30.108Z,18.90
2018-12-22T08:21:00.849Z,13.50
2018-12-22T08:23:31.836Z,18.07
2018-12-22T08:26:03.479Z,11.97
2018-12-22T08:28:34.438Z,14.37
2018-12-22T08:31:05.942Z,14.57
2018-12-22T08:33:37.351Z,28.87
2018-12-22T08:36:08.224Z,25.23
2018-12-22T08:38:39.306Z,47.90
2018-12-22T08:41:10.376Z,36.73
2018-12-22T08:43:41.267Z,33.73
2018-12-22T08:46:12.180Z,43.80
2018-12-22T08:48:43.562Z,31.70
2018-12-22T08:51:15.725Z,16.67
2018-12-22T08:53:46.677Z,19.60
2018-12-22T08:56:20.194Z,13.30
2018-12-22T08:58:51.306Z,11.20
2018-12-22T09:01:22.262Z,18.50
2018-12-22T09:03:53.371Z,15.67
2018-12-22T09:06:24.614Z,18.27
2018-12-22T09:08:55.367Z,11.00
2018-12-22T09:11:26.724Z,16.50
2018-12-22T09:13:58.117Z,37.03
2018-12-22T09:16:29.109Z,23.27
2018-12-22T09:19:00.247Z,14.07
2018-12-22T09:21:31.795Z,15.50
2018-12-22T09:24:02.599Z,18.37
2018-12-22T09:26:33.591Z,8.33
2018-12-22T09:29:04.841Z,11.07
2018-12-22T09:31:35.816Z,12.83
2018-12-22T09:34:13.318Z,17.13
2018-12-22T09:36:39.464Z,15.37
2018-12-22T09:39:11.300Z,12.90
2018-12-22T09:41:42.938Z,21.50
2018-12-22T09:44:14.153Z,11.07
2018-12-22T09:46:45.134Z,11.40
2018-12-22T09:49:16.003Z,13.37
2018-12-22T09:51:46.698Z,17.90
2018-12-22T09:54:18.382Z,15.17
2018-12-22T09:56:49.330Z,14.50
2018-12-22T09:59:20.387Z,13.60
2018-12-22T10:01:51.696Z,14.80
2018-12-22T10:04:22.948Z,13.03
2018-12-22T10:06:55.127Z,16.57
2018-12-22T10:09:26.196Z,17.23
2018-12-22T10:11:57.400Z,16.40
2018-12-22T10:14:28.394Z,15.60
2018-12-22T10:16:59.930Z,18.07
2018-12-22T10:19:30.709Z,22.27
2018-12-22T10:22:01.815Z,12.47
2018-12-22T10:24:32.877Z,19.97
2018-12-22T10:27:03.906Z,13.63
2018-12-22T10:29:35.152Z,17.60
2018-12-22T10:32:06.712Z,18.10
2018-12-22T10:34:38.244Z,13.30
2018-12-22T10:37:09.062Z,25.03
2018-12-22T10:39:40.321Z,23.07
2018-12-22T10:42:11.233Z,15.27
2018-12-22T10:44:42.310Z,20.63
2018-12-22T10:47:13.645Z,13.57
2018-12-22T10:49:45.606Z,15.07
2018-12-22T10:52:17.261Z,20.17
2018-12-22T10:54:48.993Z,17.60
2018-12-22T10:57:19.917Z,16.20
2018-12-22T10:59:51.448Z,15.53
2018-12-22T11:02:23.784Z,18.47
2018-12-22T11:04:54.844Z,15.73
2018-12-22T11:07:25.519Z,11.30
2018-12-22T11:09:56.858Z,18.53
2018-12-22T11:12:27.900Z,13.73
2018-12-22T11:14:59.598Z,20.07
2018-12-22T11:17:30.732Z,16.90
2018-12-22T11:20:02.263Z,16.23
2018-12-22T11:22:34.144Z,14.93
2018-12-22T11:25:10.987Z,15.00
2018-12-22T11:27:42.665Z,18.03
2018-12-22T11:30:18.942Z,14.10
2018-12-22T11:32:50.480Z,17.17
2018-12-22T11:35:21.597Z,14.97
2018-12-22T11:37:53.809Z,15.00
2018-12-22T11:40:25.302Z,15.57
2018-12-22T11:42:57.386Z,11.00
2018-12-22T11:45:28.531Z,12.43
2018-12-22T11:49:23.503Z,15.23
2018-12-22T11:51:55.463Z,16.80
2018-12-22T11:54:26.697Z,13.73
2018-12-22T11:56:57.934Z,14.40
2018-12-22T11:59:30.906Z,12.87
2018-12-22T12:02:09.469Z,15.10
2018-12-22T12:04:36.715Z,12.10
2018-12-22T12:07:07.866Z,11.90
2018-12-22T12:09:39.149Z,15.37
2018-12-22T12:12:11.399Z,15.47
2018-12-22T12:14:42.954Z,18.27
2018-12-22T12:17:34.428Z,13.10
2018-12-22T12:20:05.728Z,17.00
2018-12-22T12:22:36.990Z,16.60
2018-12-22T12:25:10.162Z,12.57
2018-12-22T12:27:41.169Z,16.07
2018-12-22T12:30:15.039Z,15.67
2018-12-22T12:32:45.788Z,15.87
2018-12-22T12:35:17.012Z,13.27
2018-12-22T12:37:47.887Z,12.17
2018-12-22T12:40:18.994Z,13.23
2018-12-22T12:42:50.293Z,11.80
2018-12-22T12:45:21.360Z,15.83
2018-12-22T12:47:52.483Z,12.03
2018-12-22T12:50:25.177Z,13.10
2018-12-22T12:52:56.413Z,11.73
2018-12-22T12:55:27.454Z,10.67
2018-12-22T12:57:58.447Z,11.70
2018-12-22T13:00:29.804Z,11.67
2018-12-22T13:03:01.795Z,10.53
2018-12-22T13:05:32.844Z,12.13
2018-12-22T13:08:03.884Z,9.93
2018-12-22T13:10:34.886Z,13.07
2018-12-22T13:13:21.004Z,13.60
2018-12-22T13:15:52.286Z,12.77
2018-12-22T13:18:23.657Z,10.67
2018-12-22T13:20:54.815Z,11.10
2018-12-22T13:23:25.740Z,15.00
2018-12-22T13:25:56.305Z,11.60
2018-12-22T13:28:27.407Z,12.83
2018-12-22T13:30:58.266Z,18.77
2018-12-22T13:33:29.768Z,14.17
2018-12-22T13:36:01.536Z,15.57
2018-12-22T13:38:35.915Z,10.77
2018-12-22T13:41:07.328Z,13.70
2018-12-22T13:43:38.366Z,10.17
2018-12-22T13:46:12.105Z,15.00
2018-12-22T13:48:43.377Z,10.17
2018-12-22T13:51:14.891Z,14.50
2018-12-22T13:53:46.261Z,11.83
2018-12-22T13:56:17.255Z,11.77
2018-12-22T13:58:48.846Z,14.97
2018-12-22T14:01:23.345Z,17.30
2018-12-22T14:03:58.529Z,11.73
2018-12-22T14:06:36.021Z,13.87
2018-12-22T14:09:09.228Z,13.87
2018-12-22T14:11:40.754Z,17.37
2018-12-22T14:14:18.234Z,23.20
2018-12-22T14:16:59.095Z,15.00
2018-12-22T14:19:30.689Z,12.93
2018-12-22T14:22:01.901Z,15.13
2018-12-22T14:24:43.100Z,13.40
2018-12-22T14:27:14.166Z,11.73
2018-12-22T14:29:45.146Z,16.73
2018-12-22T14:32:16.576Z,14.97
2018-12-22T14:35:31.204Z,17.83
2018-12-22T14:38:02.394Z,15.33
2018-12-22T14:40:33.451Z,13.00
2018-12-22T14:43:04.810Z,16.67
2018-12-22T14:45:35.991Z,16.50
2018-12-22T14:48:07.732Z,15.83
2018-12-22T14:50:38.673Z,16.30
2018-12-22T14:53:10.560Z,17.80
2018-12-22T14:55:41.666Z,14.10
2018-12-22T14:58:18.839Z,18.37
2018-12-22T15:00:50.093Z,14.83
2018-12-22T15:03:21.311Z,16.70
2018-12-22T15:05:54.163Z,16.03
2018-12-22T15:08:25.614Z,16.97
2018-12-22T15:10:57.211Z,17.30
2018-12-22T15:13:28.358Z,22.53
2018-12-22T15:16:03.221Z,20.67
2018-12-22T15:18:34.506Z,24.50
2018-12-22T15:21:06.134Z,23.10
2018-12-22T15:23:38.000Z,24.03
2018-12-22T15:26:10.166Z,21.47
2018-12-22T15:28:47.170Z,25.33
2018-12-22T15:31:15.280Z,27.33
2018-12-22T15:33:47.298Z,26.57
2018-12-22T15:36:18.909Z,27.17
2018-12-22T15:38:52.503Z,46.00
2018-12-22T15:41:23.989Z,31.10
2018-12-22T15:43:55.682Z,27.83
2018-12-22T15:46:26.767Z,26.60
2018-12-22T15:48:59.033Z,30.47
2018-12-22T15:51:30.305Z,29.57
2018-12-22T15:54:01.903Z,26.53
2018-12-22T15:56:34.291Z,31.13
2018-12-22T15:59:05.478Z,32.50
2018-12-22T16:01:36.956Z,28.13
2018-12-22T16:04:08.468Z,27.30
2018-12-22T16:06:39.574Z,35.17
2018-12-22T16:09:10.900Z,29.30
2018-12-22T16:11:41.944Z,27.27
2018-12-22T16:14:12.920Z,37.37
2018-12-22T16:16:44.412Z,34.27
2018-12-22T16:19:16.474Z,34.73
2018-12-22T16:21:47.522Z,37.47
2018-12-22T16:24:19.355Z,29.67
2018-12-22T16:26:50.256Z,33.80
2018-12-22T16:29:32.604Z,39.17
2018-12-22T16:32:04.085Z,30.13
2018-12-22T16:34:35.636Z,37.97
2018-12-22T16:37:06.573Z,43.87
2018-12-22T16:39:39.793Z,34.77
2018-12-22T16:42:10.673Z,38.37
2018-12-22T16:44:42.982Z,26.50
2018-12-22T16:47:13.777Z,34.57
2018-12-22T16:49:45.518Z,30.23
2018-12-22T16:52:16.720Z,29.13
2018-12-22T16:54:49.023Z,31.77
2018-12-22T16:57:20.185Z,39.23
2018-12-22T16:59:51.391Z,39.83
2018-12-22T17:02:34.891Z,41.07
2018-12-22T17:05:09.700Z,37.60
2018-12-22T17:07:41.782Z,43.27
2018-12-22T17:10:12.959Z,38.40
2018-12-22T17:12:44.223Z,40.30
2018-12-22T17:15:21.887Z,39.00
2018-12-22T17:17:48.401Z,42.10
2018-12-22T17:20:19.914Z,40.60
2018-12-22T17:23:20.985Z,38.90
2018-12-22T17:25:58.750Z,35.00
2018-12-22T17:28:30.143Z,41.83
2018-12-22T17:31:01.121Z,40.13
2018-12-22T17:33:32.158Z,34.33
2018-12-22T17:36:02.981Z,35.23
2018-12-22T17:38:33.805Z,41.73
2018-12-22T17:41:05.164Z,31.60
2018-12-22T17:43:38.247Z,32.07
2018-12-22T17:46:09.786Z,36.07
2018-12-22T17:48:41.392Z,30.87
2018-12-22T17:51:14.640Z,30.00
2018-12-22T17:53:46.148Z,29.07
2018-12-22T17:56:19.566Z,38.10
2018-12-22T17:58:51.069Z,32.70
2018-12-22T18:01:22.512Z,30.87
2018-12-22T18:03:53.709Z,34.17
2018-12-22T18:06:24.414Z,34.20
2018-12-22T18:08:55.510Z,37.00
2018-12-22T18:11:26.623Z,38.83
2018-12-22T18:13:58.048Z,41.27
2018-12-22T18:16:29.753Z,32.20
2018-12-22T18:19:01.314Z,33.00
2018-12-22T18:21:33.419Z,36.97
2018-12-22T18:24:04.340Z,38.73
2018-12-22T18:26:35.437Z,39.60
2018-12-22T18:29:07.464Z,32.67
2018-12-22T18:31:39.341Z,41.53
2018-12-22T18:34:10.340Z,45.37
2018-12-22T18:36:41.701Z,46.00
2018-12-22T18:39:12.854Z,53.00
2018-12-22T18:41:46.087Z,52.63
2018-12-22T18:44:17.335Z,50.17
2018-12-22T18:46:49.030Z,59.07
2018-12-22T18:49:20.155Z,54.30
2018-12-22T18:51:51.050Z,54.93
2018-12-22T18:54:21.823Z,46.20
2018-12-22T18:56:53.239Z,36.27
2018-12-22T18:59:25.312Z,42.10
2018-12-22T19:01:57.356Z,37.10
2018-12-22T19:04:29.249Z,36.87
2018-12-22T19:07:00.599Z,40.43
2018-12-22T19:09:34.779Z,39.73
2018-12-22T19:12:14.650Z,42.57
2018-12-22T19:14:54.488Z,33.47
2018-12-22T19:17:26.677Z,35.07
2018-12-22T19:20:02.860Z,30.00
2018-12-22T19:22:34.091Z,36.70
2018-12-22T19:25:05.492Z,38.60
2018-12-22T19:27:37.067Z,41.10
2018-12-22T19:30:09.447Z,41.20
2018-12-22T19:32:41.336Z,47.87
2018-12-22T19:35:12.926Z,48.13
2018-12-22T19:37:46.256Z,40.10
2018-12-22T19:40:20.503Z,29.27
2018-12-22T19:42:53.666Z,39.30
2018-12-22T19:45:25.384Z,30.57
2018-12-22T19:47:57.986Z,29.23
2018-12-22T19:50:29.955Z,29.63
2018-12-22T19:53:01.977Z,27.83
2018-12-22T19:55:33.705Z,31.93
2018-12-22T19:58:05.885Z,33.57
2018-12-22T20:00:38.552Z,29.00
2018-12-22T20:03:11.081Z,30.97
2018-12-22T20:05:43.705Z,26.73
2018-12-22T20:08:16.861Z,25.13
2018-12-22T20:10:49.530Z,29.23
2018-12-22T20:13:22.903Z,33.50
2018-12-22T20:15:56.030Z,27.07
2018-12-22T20:18:29.023Z,28.93
2018-12-22T20:21:01.641Z,27.97
2018-12-22T20:23:35.118Z,19.03
2018-12-22T20:26:07.867Z,26.87
2018-12-22T20:28:42.871Z,25.10
2018-12-22T20:31:16.072Z,23.60
2018-12-22T20:33:48.451Z,22.60
2018-12-22T20:36:21.662Z,24.70
2018-12-22T20:38:57.299Z,20.43
2018-12-22T20:41:30.869Z,26.33
2018-12-22T20:44:03.879Z,27.70
2018-12-22T20:46:37.151Z,26.90
2018-12-22T20:49:10.239Z,25.43
2018-12-22T20:51:43.583Z,28.17
2018-12-22T20:54:16.543Z,29.90
2018-12-22T20:56:49.694Z,27.27
2018-12-22T20:59:21.778Z,24.10
2018-12-22T21:01:54.722Z,28.67
2018-12-22T21:04:26.978Z,24.97
2018-12-22T21:06:58.814Z,31.90
2018-12-22T21:09:31.957Z,30.63
2018-12-22T21:12:05.184Z,34.57
2018-12-22T21:14:37.444Z,34.63
2018-12-22T21:17:10.305Z,36.67
2018-12-22T21:19:43.336Z,47.43
2018-12-22T21:22:17.074Z,48.23
2018-12-22T21:24:49.583Z,47.17
2018-12-22T21:27:21.332Z,45.07
2018-12-22T21:29:52.599Z,46.43
2018-12-22T21:32:25.093Z,52.47
2018-12-22T21:34:55.947Z,47.50
2018-12-22T21:37:27.199Z,59.93
2018-12-22T21:39:59.194Z,52.00
2018-12-22T21:42:31.712Z,61.10
2018-12-22T21:45:03.895Z,66.43
2018-12-22T21:47:35.236Z,55.77
2018-12-22T21:50:09.098Z,70.43
2018-12-22T21:52:40.361Z,59.27
2018-12-22T21:55:13.940Z,57.80
2018-12-22T21:57:45.491Z,58.97
2018-12-22T22:00:17.176Z,53.77
2018-12-22T22:02:48.865Z,59.83
2018-12-22T22:05:21.148Z,60.50
2018-12-22T22:07:52.906Z,56.63
2018-12-22T22:10:25.402Z,71.37
2018-12-22T22:12:56.712Z,76.07
2018-12-22T22:15:29.027Z,74.80
2018-12-22T22:18:01.736Z,68.07
2018-12-22T22:20:33.900Z,60.57
2018-12-22T22:23:06.900Z,73.20
2018-12-22T22:25:38.498Z,63.13
2018-12-22T22:28:09.581Z,70.43
2018-12-22T22:30:40.626Z,67.23
2018-12-22T22:33:11.957Z,60.90
2018-12-22T22:35:43.803Z,62.33
2018-12-22T22:38:14.795Z,60.40
2018-12-22T22:40:45.936Z,51.57
2018-12-22T22:43:17.059Z,63.43
2018-12-22T22:45:48.904Z,54.70
2018-12-22T22:48:20.170Z,46.77
2018-12-22T22:50:53.011Z,49.73
2018-12-22T22:53:24.416Z,82.57
2018-12-22T22:55:57.229Z,62.13
2018-12-22T22:58:29.914Z,46.30
2018-12-22T23:01:02.143Z,55.50
2018-12-22T23:03:33.666Z,49.87
2018-12-22T23:06:06.428Z,48.97
2018-12-22T23:08:37.848Z,50.03
2018-12-22T23:11:10.830Z,51.77
2018-12-22T23:13:42.630Z,48.40
2018-12-22T23:16:14.216Z,45.93
2018-12-22T23:18:45.569Z,48.37
2018-12-22T23:21:17.541Z,55.90
2018-12-22T23:23:49.183Z,50.30
2018-12-22T23:26:20.811Z,47.30
2018-12-22T23:28:52.095Z,45.17
2018-12-22T23:31:25.106Z,39.30
2018-12-22T23:33:56.870Z,43.93
2018-12-22T23:36:28.360Z,53.37
2018-12-22T23:39:00.327Z,47.77
2018-12-22T23:41:31.858Z,41.17
2018-12-22T23:44:03.333Z,21.93
2018-12-22T23:46:35.845Z,20.53
2018-12-22T23:49:07.587Z,21.73
2018-12-22T23:51:39.633Z,26.30
2018-12-22T23:54:10.819Z,26.50
2018-12-22T23:56:42.223Z,23.53
2018-12-22T23:59:13.579Z,28.00
